Thunder radar more information blitzortung!


Radar de pluja more information rain snow radar


Visita la nostra xarxa de llocs de meteo:

Template documentation
and downloads

And another site



No particular awareness of the weather is required.    There are no Weather-warnings

Pagina Historial Weather Underground text

Diari Resum Novembre 2, 2017 Unitats:  Imperial    Mètric   Tant
« Previous Dia
SegĂźent Dia »
Diari Setmana Mensual Anual Personalitzada
  Maxima: Minima: Media:
Temperatura: TemperatureC °F 11.3 °F 16.8 °F
Punt de rosada: DewpointC °F 9.7 °F 12.8 °F
Humitat: Humidity % 65 % 77 %
Wind Speed: WindSpeedKMH mph 0.0 mph 5.4 mph
RĂ fegues de vent: WindSpeedGustKMH mph - -
Vent:- - SSW
Pression baro: PressurehPa in 1016.8 in -
Precipitacions: 0.0 in    
Historical Graphs
 
 
Dades de taula per Novembre 2, 2017
Temps Temperatura Punt de rosada Pression baro Vent Wind Speed RĂ fegues de vent Humitat Rainfall Rate (Hourly)
TemperatureC °F DewpointC °F PressurehPa in Calm     Humidity % HourlyPrecipMM in
00:03 13.5 °F 10.8 °F 1021.9 in WSW 2.3 mph 2.3 mph 84 % 0.0 in
00:05 12.2 °F 10.6 °F 1020.9 in WNW 3.2 mph 3.2 mph 90 % 0.0 in
00:08 13.5 °F 10.8 °F 1022.9 in Calm     84 % 0.0 in
00:15 11.9 °F 10.3 °F 1020.9 in Calm   3.2 mph 90 % 0.0 in
00:25 11.7 °F 9.9 °F 1020.9 in SE 1.6 mph 3.2 mph 89 % 0.0 in
00:35 11.5 °F 9.7 °F 1020.9 in Calm   1.6 mph 89 % 0.0 in
00:45 11.5 °F 9.7 °F 1020.9 in Calm     89 % 0.0 in
00:55 11.4 °F 9.7 °F 1020.9 in Calm     89 % 0.0 in
01:05 11.4 °F 9.7 °F 1020.9 in Calm     89 % 0.0 in
01:15 11.3 °F 9.7 °F 1020.9 in Calm     90 % 0.0 in
01:25 11.4 °F 9.8 °F 1021.9 in Calm     90 % 0.0 in
01:35 11.4 °F 9.8 °F 1021.9 in Calm     90 % 0.0 in
01:45 11.5 °F 9.9 °F 1020.9 in Calm     90 % 0.0 in
01:55 11.7 °F 10.3 °F 1020.9 in Calm   1.6 mph 91 % 0.0 in
02:05 11.8 °F 10.4 °F 1020.9 in North 1.6 mph 3.2 mph 91 % 0.0 in
02:15 11.9 °F 10.5 °F 1021.9 in NNE 1.6 mph 3.2 mph 91 % 0.0 in
02:25 11.8 °F 10.2 °F 1021.9 in NE 1.6 mph 3.2 mph 90 % 0.0 in
02:35 12.0 °F 10.4 °F 1021.9 in ENE 1.6 mph 3.2 mph 90 % 0.0 in
02:45 12.0 °F 10.4 °F 1021.9 in Calm   1.6 mph 90 % 0.0 in
02:55 12.4 °F 10.8 °F 1021.9 in NE 1.6 mph 3.2 mph 90 % 0.0 in
03:05 12.9 °F 11.1 °F 1021.9 in ENE 3.2 mph 3.2 mph 89 % 0.0 in
03:15 13.0 °F 11.1 °F 1021.9 in East 3.2 mph 3.2 mph 88 % 0.0 in
03:25 13.0 °F 10.9 °F 1021.9 in East 1.6 mph 3.2 mph 87 % 0.0 in
03:35 13.5 °F 11.6 °F 1021.9 in East 1.6 mph 3.2 mph 88 % 0.0 in
03:45 13.9 °F 11.6 °F 1021.9 in Calm   4.8 mph 86 % 0.0 in
03:55 14.1 °F 11.4 °F 1021.9 in ESE 4.8 mph 6.4 mph 84 % 0.0 in
04:05 14.3 °F 11.6 °F 1021.9 in ESE 3.2 mph 4.8 mph 84 % 0.0 in
04:15 14.6 °F 11.9 °F 1021.9 in ESE 1.6 mph 4.8 mph 84 % 0.0 in
10:24 14.7 °F 11.8 °F 1020.9 in ESE 5.3 mph 5.3 mph 83 % 0.0 in
10:25 14.8 °F 11.9 °F 1020.9 in ESE 5.3 mph 5.3 mph 83 % 0.0 in
10:30 15.3 °F 12.4 °F 1020.9 in East 1.6 mph 4.8 mph 83 % 0.0 in
10:35 15.3 °F 12.2 °F 1020.9 in East 3.2 mph 3.2 mph 82 % 0.0 in
10:40 15.6 °F 12.5 °F 1021.9 in ESE 1.6 mph 3.2 mph 82 % 0.0 in
10:45 15.9 °F 12.7 °F 1021.9 in SE 1.6 mph 3.2 mph 81 % 0.0 in
10:50 15.9 °F 12.7 °F 1021.9 in ESE 3.7 mph 3.7 mph 81 % 0.0 in
10:55 16.0 °F 12.6 °F 1021.9 in ENE 3.2 mph 3.2 mph 80 % 0.0 in
11:00 16.0 °F 12.6 °F 1021.9 in NNE 2.3 mph 2.3 mph 80 % 0.0 in
11:05 16.1 °F 12.7 °F 1021.9 in NE 3.7 mph 3.7 mph 80 % 0.0 in
11:10 16.3 °F 12.8 °F 1021.9 in ENE 3.7 mph 3.7 mph 80 % 0.0 in
11:15 16.7 °F 13.2 °F 1021.9 in ENE 5.6 mph 5.6 mph 80 % 0.0 in
11:20 17.1 °F 13.2 °F 1021.9 in NNE 4.7 mph 4.7 mph 78 % 0.0 in
11:25 17.1 °F 13.2 °F 1021.9 in NNE 4.2 mph 4.2 mph 78 % 0.0 in
11:30 17.3 °F 13.2 °F 1021.9 in NNE 5.6 mph 5.6 mph 77 % 0.0 in
11:35 16.9 °F 13.1 °F 1021.9 in NE 5.6 mph 5.6 mph 78 % 0.0 in
11:40 17.3 °F 13.2 °F 1021.9 in ENE 3.7 mph 3.7 mph 77 % 0.0 in
11:45 17.8 °F 13.7 °F 1021.9 in ENE 4.7 mph 4.7 mph 77 % 0.0 in
11:50 18.1 °F 14.0 °F 1021.9 in NNE 7.4 mph 7.4 mph 77 % 0.0 in
11:55 18.1 °F 13.8 °F 1021.9 in NNE 5.6 mph 5.6 mph 76 % 0.0 in
12:05 18.5 °F 14.0 °F 1021.9 in NNE 4.7 mph 4.7 mph 75 % 0.0 in
12:10 18.6 °F 14.1 °F 1020.9 in East 4.7 mph   75 % 0.0 in
12:15 19.1 °F 14.2 °F 1020.9 in South 4.2 mph 4.2 mph 73 % 0.0 in
12:20 19.1 °F 14.2 °F 1020.9 in West 3.7 mph 3.7 mph 73 % 0.0 in
12:25 19.1 °F 13.9 °F 1019.9 in ENE 9.3 mph 9.3 mph 72 % 0.0 in
12:30 19.3 °F 14.3 °F 1019.9 in ENE 3.7 mph 3.7 mph 73 % 0.0 in
12:35 19.5 °F 14.6 °F 1019.9 in WSW 3.2 mph 3.2 mph 73 % 0.0 in
12:40 20.1 °F 15.1 °F 1019.9 in SSW 10.3 mph 10.3 mph 73 % 0.0 in
12:45 20.6 °F 15.1 °F 1019.9 in SSW 3.2 mph 11.3 mph 71 % 0.0 in
12:50 20.8 °F 15.6 °F 1019.9 in SSW 3.2 mph 9.7 mph 72 % 0.0 in
12:55 20.9 °F 15.4 °F 1019.9 in SW 8.0 mph 16.1 mph 71 % 0.0 in
13:00 21.1 °F 15.1 °F 1019.9 in SW 3.2 mph 9.7 mph 69 % 0.0 in
13:05 21.1 °F 14.9 °F 1019.9 in SSW 4.8 mph 9.7 mph 68 % 0.0 in
13:10 21.0 °F 15.1 °F 1019.9 in SW 4.8 mph 11.3 mph 69 % 0.0 in
13:15 21.3 °F 15.1 °F 1019.9 in SW 3.2 mph 8.0 mph 68 % 0.0 in
13:20 21.1 °F 14.7 °F 1019.9 in SSW 11.1 mph 11.1 mph 67 % 0.0 in
13:25 21.2 °F 14.8 °F 1019.9 in SSW 8.0 mph 16.1 mph 67 % 0.0 in
13:30 20.8 °F 14.4 °F 1019.9 in SSW 9.7 mph 14.5 mph 67 % 0.0 in
13:35 20.8 °F 14.2 °F 1019.9 in SW 9.7 mph 16.1 mph 66 % 0.0 in
13:40 21.1 °F 14.5 °F 1018.8 in SW 3.2 mph 16.1 mph 66 % 0.0 in
13:45 20.9 °F 14.3 °F 1018.8 in SSW 4.8 mph 16.1 mph 66 % 0.0 in
13:50 20.7 °F 13.9 °F 1018.8 in SSW 8.0 mph 16.1 mph 65 % 0.0 in
13:55 20.6 °F 13.8 °F 1018.8 in SW 11.3 mph 17.7 mph 65 % 0.0 in
14:00 20.5 °F 13.9 °F 1018.8 in WSW 16.7 mph 16.7 mph 66 % 0.0 in
14:05 20.6 °F 14.0 °F 1018.8 in SW 4.8 mph 9.7 mph 66 % 0.0 in
14:10 20.4 °F 13.8 °F 1018.8 in SW 8.0 mph 16.1 mph 66 % 0.0 in
14:15 20.3 °F 13.7 °F 1018.8 in SSW 8.0 mph 19.3 mph 66 % 0.0 in
14:20 20.4 °F 14.1 °F 1018.8 in SW 8.0 mph 14.5 mph 67 % 0.0 in
14:25 20.3 °F 13.9 °F 1018.8 in SW 4.8 mph 14.5 mph 67 % 0.0 in
14:30 20.4 °F 14.1 °F 1018.8 in SW 11.1 mph 11.1 mph 67 % 0.0 in
14:35 20.4 °F 13.8 °F 1018.8 in SW 14.8 mph 14.8 mph 66 % 0.0 in
14:40 20.4 °F 13.8 °F 1018.8 in SSW 14.8 mph 14.8 mph 66 % 0.0 in
14:45 20.3 °F 13.7 °F 1018.8 in SW 13.0 mph 13.0 mph 66 % 0.0 in
14:50 20.4 °F 13.8 °F 1018.8 in WSW 11.1 mph 11.1 mph 66 % 0.0 in
14:55 20.4 °F 14.1 °F 1018.8 in West 9.0 mph 9.0 mph 67 % 0.0 in
15:00 20.3 °F 13.7 °F 1018.8 in SSW 14.8 mph 14.8 mph 66 % 0.0 in
15:05 20.4 °F 13.8 °F 1018.8 in SSW 24.1 mph 24.1 mph 66 % 0.0 in
15:10 20.6 °F 14.0 °F 1017.8 in WSW 9.7 mph 10.0 mph 66 % 0.0 in
15:15 20.7 °F 14.1 °F 1017.8 in SSW 9.3 mph 9.3 mph 66 % 0.0 in
15:20 20.7 °F 14.1 °F 1017.8 in SW 9.3 mph 9.3 mph 66 % 0.0 in
15:25 20.7 °F 14.1 °F 1017.8 in South 13.0 mph 13.0 mph 66 % 0.0 in
15:30 20.4 °F 13.6 °F 1017.8 in WSW 20.4 mph 20.4 mph 65 % 0.0 in
15:35 20.4 °F 13.8 °F 1017.8 in SSW 13.0 mph 13.0 mph 66 % 0.0 in
15:40 20.4 °F 13.8 °F 1017.8 in SSE 18.5 mph 18.5 mph 66 % 0.0 in
15:45 20.3 °F 13.7 °F 1017.8 in SW 9.3 mph 9.3 mph 66 % 0.0 in
15:50 20.3 °F 13.7 °F 1017.8 in WSW 13.0 mph 13.0 mph 66 % 0.0 in
15:55 20.2 °F 13.7 °F 1017.8 in South 14.8 mph 14.8 mph 66 % 0.0 in
16:00 20.1 °F 13.6 °F 1017.8 in West 14.8 mph 14.8 mph 66 % 0.0 in
16:05 20.0 °F 13.7 °F 1017.8 in WSW 14.8 mph 14.8 mph 67 % 0.0 in
16:10 20.0 °F 13.7 °F 1017.8 in SSW 7.4 mph 7.4 mph 67 % 0.0 in
16:15 20.1 °F 13.8 °F 1017.8 in SW 13.0 mph 13.0 mph 67 % 0.0 in
16:20 19.8 °F 13.7 °F 1017.8 in SW 13.0 mph 13.0 mph 68 % 0.0 in
16:25 19.8 °F 13.9 °F 1017.8 in SW 18.5 mph 18.5 mph 69 % 0.0 in
16:30 19.6 °F 13.8 °F 1017.8 in South 11.1 mph 11.1 mph 69 % 0.0 in
16:35 19.6 °F 14.0 °F 1017.8 in SW 11.1 mph 11.1 mph 70 % 0.0 in
16:40 19.5 °F 13.9 °F 1016.8 in SSW 9.3 mph 9.3 mph 70 % 0.0 in
16:45 19.3 °F 13.9 °F 1016.8 in West 11.1 mph 11.1 mph 71 % 0.0 in
16:50 19.2 °F 13.8 °F 1016.8 in SW 9.3 mph 9.3 mph 71 % 0.0 in
16:55 19.1 °F 13.9 °F 1017.8 in SW 11.1 mph 11.1 mph 72 % 0.0 in
17:00 19.0 °F 13.8 °F 1017.8 in WSW 9.3 mph 9.3 mph 72 % 0.0 in
17:05 18.8 °F 13.8 °F 1017.8 in SW 7.4 mph 7.4 mph 73 % 0.0 in
17:10 18.7 °F 13.9 °F 1017.8 in WSW 11.4 mph 11.4 mph 74 % 0.0 in
17:15 18.6 °F 13.9 °F 1017.8 in SW 7.4 mph 7.4 mph 74 % 0.0 in
17:20 18.5 °F 14.0 °F 1017.8 in WSW 7.4 mph 7.4 mph 75 % 0.0 in
17:25 18.4 °F 13.9 °F 1017.8 in SW 7.4 mph 7.4 mph 75 % 0.0 in
17:30 18.3 °F 13.8 °F 1017.8 in SW 9.5 mph 9.5 mph 75 % 0.0 in
17:35 18.3 °F 13.8 °F 1017.8 in WSW 7.9 mph 7.9 mph 75 % 0.0 in
17:40 18.2 °F 13.9 °F 1017.8 in SSW 7.4 mph 7.4 mph 76 % 0.0 in
17:45 18.1 °F 13.8 °F 1017.8 in SSW 9.3 mph 9.3 mph 76 % 0.0 in
17:50 18.0 °F 13.7 °F 1017.8 in SW 8.7 mph 8.7 mph 76 % 0.0 in
17:55 17.9 °F 13.8 °F 1017.8 in SW 9.3 mph 9.3 mph 77 % 0.0 in
18:00 17.8 °F 13.7 °F 1017.8 in South 7.4 mph 7.4 mph 77 % 0.0 in
18:05 17.7 °F 13.6 °F 1017.8 in SSW 9.3 mph 9.3 mph 77 % 0.0 in
18:10 17.7 °F 13.6 °F 1017.8 in WSW 7.4 mph 7.4 mph 77 % 0.0 in
18:15 17.6 °F 13.7 °F 1017.8 in SW 5.6 mph 5.6 mph 78 % 0.0 in
18:20 17.5 °F 13.6 °F 1017.8 in SW 5.6 mph 5.6 mph 78 % 0.0 in
18:25 17.4 °F 13.5 °F 1017.8 in SW 5.6 mph 5.6 mph 78 % 0.0 in
18:30 17.4 °F 13.5 °F 1017.8 in WSW 5.6 mph 5.6 mph 78 % 0.0 in
18:35 17.3 °F 13.4 °F 1017.8 in SSW 7.4 mph 7.4 mph 78 % 0.0 in
18:40 17.3 °F 13.6 °F 1017.8 in SW 7.4 mph 7.4 mph 79 % 0.0 in
18:45 17.2 °F 13.5 °F 1017.8 in WSW 5.6 mph 5.6 mph 79 % 0.0 in
18:50 17.1 °F 13.4 °F 1017.8 in WSW 3.7 mph 3.7 mph 79 % 0.0 in
18:55 17.1 °F 13.4 °F 1017.8 in WNW 3.7 mph 3.7 mph 79 % 0.0 in
19:00 17.0 °F 13.5 °F 1017.8 in SW 3.7 mph 3.7 mph 80 % 0.0 in
19:05 16.9 °F 13.6 °F 1017.8 in SSW 3.9 mph 3.9 mph 81 % 0.0 in
19:10 16.8 °F 13.5 °F 1017.8 in SW 5.3 mph 5.3 mph 81 % 0.0 in
19:15 16.7 °F 13.4 °F 1017.8 in WSW 6.1 mph 6.1 mph 81 % 0.0 in
19:20 16.6 °F 13.3 °F 1017.8 in SW 6.4 mph 6.4 mph 81 % 0.0 in
19:25 16.6 °F 13.3 °F 1018.8 in SW 5.6 mph 5.6 mph 81 % 0.0 in
19:30 16.5 °F 13.2 °F 1018.8 in SSW 5.3 mph 5.3 mph 81 % 0.0 in
19:35 16.5 °F 13.2 °F 1018.8 in SW 5.3 mph 5.3 mph 81 % 0.0 in
19:40 16.4 °F 13.1 °F 1018.8 in SW 5.8 mph 5.8 mph 81 % 0.0 in
19:45 16.5 °F 13.2 °F 1018.8 in SW 5.6 mph 5.6 mph 81 % 0.0 in
19:50 16.4 °F 13.1 °F 1018.8 in WSW 4.2 mph 4.2 mph 81 % 0.0 in
19:55 16.3 °F 13.1 °F 1018.8 in SW 3.7 mph 3.7 mph 81 % 0.0 in
20:00 16.3 °F 13.1 °F 1018.8 in West 3.7 mph 3.7 mph 81 % 0.0 in
20:05 16.2 °F 12.9 °F 1018.8 in West 2.6 mph 2.6 mph 81 % 0.0 in
20:10 16.2 °F 13.1 °F 1017.8 in West 3.7 mph 3.7 mph 82 % 0.0 in
20:15 16.2 °F 12.9 °F 1017.8 in West 3.7 mph 3.7 mph 81 % 0.0 in
20:20 16.2 °F 13.1 °F 1017.8 in West 1.9 mph 1.9 mph 82 % 0.0 in
20:25 16.1 °F 13.0 °F 1017.8 in SW 2.6 mph 2.6 mph 82 % 0.0 in
20:30 16.0 °F 12.9 °F 1017.8 in West 3.7 mph 3.7 mph 82 % 0.0 in
20:35 15.9 °F 12.8 °F 1017.8 in WSW 3.7 mph 3.7 mph 82 % 0.0 in
20:40 15.8 °F 12.7 °F 1018.8 in WSW 3.2 mph 3.2 mph 82 % 0.0 in
20:45 15.7 °F 12.6 °F 1018.8 in West 3.7 mph 3.7 mph 82 % 0.0 in
20:50 15.7 °F 12.6 °F 1018.8 in SW 3.7 mph 3.7 mph 82 % 0.0 in
20:55 15.6 °F 12.6 °F 1018.8 in WSW 2.3 mph 2.3 mph 82 % 0.0 in
21:00 15.6 °F 12.6 °F 1018.8 in WSW 1.9 mph 2.3 mph 82 % 0.0 in
21:05 15.5 °F 12.4 °F 1018.8 in West 4.2 mph 4.2 mph 82 % 0.0 in
21:10 15.4 °F 12.3 °F 1018.8 in SW 3.7 mph 3.7 mph 82 % 0.0 in
21:15 15.3 °F 12.4 °F 1018.8 in WSW 3.7 mph 3.7 mph 83 % 0.0 in
21:20 15.3 °F 12.4 °F 1018.8 in West 3.7 mph 3.7 mph 83 % 0.0 in
21:25 15.3 °F 12.4 °F 1018.8 in West 1.9 mph   83 % 0.0 in
21:30 15.3 °F 12.4 °F 1018.8 in West 1.9 mph 1.9 mph 83 % 0.0 in
21:35 15.2 °F 12.3 °F 1018.8 in SW 2.6 mph 2.6 mph 83 % 0.0 in
21:40 15.1 °F 12.2 °F 1018.8 in Calm     83 % 0.0 in
21:45 15.0 °F 12.1 °F 1018.8 in SW 1.9 mph   83 % 0.0 in
21:50 14.9 °F 12.1 °F 1018.8 in SW 3.2 mph 3.2 mph 83 % 0.0 in
21:55 14.8 °F 11.9 °F 1017.8 in SW 3.7 mph 3.7 mph 83 % 0.0 in
22:00 14.7 °F 11.8 °F 1017.8 in SW 3.5 mph 3.5 mph 83 % 0.0 in
22:05 14.6 °F 11.7 °F 1017.8 in WSW 3.7 mph 3.7 mph 83 % 0.0 in
22:10 14.6 °F 11.7 °F 1018.8 in SW 3.7 mph 3.7 mph 83 % 0.0 in
22:15 14.5 °F 11.7 °F 1018.8 in SW 1.9 mph 1.9 mph 83 % 0.0 in
22:20 14.5 °F 11.7 °F 1018.8 in SW 2.6 mph 2.6 mph 83 % 0.0 in
22:25 14.5 °F 11.7 °F 1018.8 in SW 1.9 mph 1.9 mph 83 % 0.0 in
22:30 14.5 °F 11.7 °F 1018.8 in SW 3.7 mph   83 % 0.0 in
22:35 14.5 °F 11.7 °F 1018.8 in SW 2.3 mph   83 % 0.0 in
22:40 14.4 °F 11.4 °F 1018.8 in West 3.7 mph 3.7 mph 82 % 0.0 in
22:45 14.4 °F 11.4 °F 1018.8 in SW 1.9 mph 1.9 mph 82 % 0.0 in
22:50 14.4 °F 11.4 °F 1018.8 in WSW 3.7 mph 3.7 mph 82 % 0.0 in
22:51 14.4 °F 11.4 °F 1018.8 in WSW 3.7 mph 3.7 mph 82 % 0.0 in
22:56 14.6 °F 11.6 °F 1017.8 in WSW 3.7 mph 3.7 mph 82 % 0.0 in
23:01 14.6 °F 11.6 °F 1017.8 in WSW 3.7 mph   82 % 0.0 in
23:06 14.6 °F 11.6 °F 1017.8 in Calm     82 % 0.0 in
23:11 14.5 °F 11.4 °F 1017.8 in Calm     82 % 0.0 in
23:16 14.4 °F 11.4 °F 1017.8 in Calm     82 % 0.0 in
23:21 14.4 °F 11.4 °F 1017.8 in Calm     82 % 0.0 in
23:26 14.3 °F 11.3 °F 1017.8 in Calm     82 % 0.0 in
23:31 14.3 °F 11.3 °F 1017.8 in Calm     82 % 0.0 in
23:36 14.2 °F 11.2 °F 1017.8 in Calm     82 % 0.0 in
23:41 14.2 °F 11.3 °F 1017.8 in Calm     83 % 0.0 in
23:46 14.1 °F 11.3 °F 1017.8 in Calm     83 % 0.0 in
23:51 14.0 °F 11.2 °F 1017.8 in North 2.3 mph   83 % 0.0 in
23:56 13.9 °F 11.1 °F 1017.8 in ENE 2.6 mph   83 % 0.0 in
Meteo Sesrovires
Elogis d' Weather Underground - 1.5 mb

Guio original per  Jim McMurry - jmcmurry@mwt.net Adaptat per a la plantilla per  Wim van der Kuil - Leuven-Template.eu

Trobareu la nostra informacio del temps tambe a:

Weather Underground

AWEKAS